sensor_id;sensor_type;location;lat;lon;timestamp;P1;durP1;ratioP1;P2;durP2;ratioP2
49015;SDS011;34830;44.064;12.566;2023-07-30T00:01:00;3.90;;;2.90;;
49015;SDS011;34830;44.064;12.566;2023-07-30T00:03:26;4.47;;;2.45;;
49015;SDS011;34830;44.064;12.566;2023-07-30T00:05:52;5.45;;;2.92;;
49015;SDS011;34830;44.064;12.566;2023-07-30T00:08:19;6.07;;;3.40;;
49015;SDS011;34830;44.064;12.566;2023-07-30T00:10:45;9.15;;;3.10;;
49015;SDS011;34830;44.064;12.566;2023-07-30T00:13:12;5.00;;;3.00;;
49015;SDS011;34830;44.064;12.566;2023-07-30T00:15:38;6.93;;;2.85;;
49015;SDS011;34830;44.064;12.566;2023-07-30T00:18:04;4.32;;;2.42;;
49015;SDS011;34830;44.064;12.566;2023-07-30T00:20:30;4.40;;;2.60;;
49015;SDS011;34830;44.064;12.566;2023-07-30T00:22:56;5.50;;;3.10;;
49015;SDS011;34830;44.064;12.566;2023-07-30T00:25:22;5.88;;;2.53;;
49015;SDS011;34830;44.064;12.566;2023-07-30T00:27:48;4.95;;;2.67;;
49015;SDS011;34830;44.064;12.566;2023-07-30T00:30:14;7.38;;;2.90;;
49015;SDS011;34830;44.064;12.566;2023-07-30T00:32:40;7.63;;;2.78;;
49015;SDS011;34830;44.064;12.566;2023-07-30T00:35:12;5.20;;;2.80;;
49015;SDS011;34830;44.064;12.566;2023-07-30T00:37:38;6.65;;;2.80;;
49015;SDS011;34830;44.064;12.566;2023-07-30T00:40:04;10.20;;;2.80;;
49015;SDS011;34830;44.064;12.566;2023-07-30T00:42:31;10.50;;;2.75;;
49015;SDS011;34830;44.064;12.566;2023-07-30T00:44:57;9.25;;;3.05;;
49015;SDS011;34830;44.064;12.566;2023-07-30T00:47:23;6.15;;;2.65;;
49015;SDS011;34830;44.064;12.566;2023-07-30T00:49:51;6.57;;;2.33;;
49015;SDS011;34830;44.064;12.566;2023-07-30T00:52:17;5.38;;;2.55;;
49015;SDS011;34830;44.064;12.566;2023-07-30T00:54:45;6.78;;;2.40;;
49015;SDS011;34830;44.064;12.566;2023-07-30T00:57:11;5.57;;;2.17;;
49015;SDS011;34830;44.064;12.566;2023-07-30T00:59:38;9.32;;;2.60;;
49015;SDS011;34830;44.064;12.566;2023-07-30T01:02:04;7.30;;;2.40;;
49015;SDS011;34830;44.064;12.566;2023-07-30T01:04:31;6.82;;;2.67;;
49015;SDS011;34830;44.064;12.566;2023-07-30T01:06:58;6.38;;;2.85;;
49015;SDS011;34830;44.064;12.566;2023-07-30T01:09:25;3.90;;;2.17;;
49015;SDS011;34830;44.064;12.566;2023-07-30T01:11:52;8.45;;;2.95;;
49015;SDS011;34830;44.064;12.566;2023-07-30T01:14:19;9.73;;;3.95;;
49015;SDS011;34830;44.064;12.566;2023-07-30T01:16:46;10.73;;;3.03;;
49015;SDS011;34830;44.064;12.566;2023-07-30T01:19:12;6.60;;;2.50;;
49015;SDS011;34830;44.064;12.566;2023-07-30T01:21:38;6.85;;;3.15;;
49015;SDS011;34830;44.064;12.566;2023-07-30T01:24:04;7.95;;;2.42;;
49015;SDS011;34830;44.064;12.566;2023-07-30T01:26:30;4.28;;;2.30;;
49015;SDS011;34830;44.064;12.566;2023-07-30T01:29:00;7.25;;;2.33;;
49015;SDS011;34830;44.064;12.566;2023-07-30T01:31:27;4.60;;;2.20;;
49015;SDS011;34830;44.064;12.566;2023-07-30T01:33:57;4.57;;;2.45;;
49015;SDS011;34830;44.064;12.566;2023-07-30T01:36:24;4.28;;;2.50;;
49015;SDS011;34830;44.064;12.566;2023-07-30T01:38:50;6.32;;;2.95;;
49015;SDS011;34830;44.064;12.566;2023-07-30T01:41:16;4.75;;;2.67;;
49015;SDS011;34830;44.064;12.566;2023-07-30T01:43:43;5.03;;;2.45;;
49015;SDS011;34830;44.064;12.566;2023-07-30T01:46:09;6.53;;;2.38;;
49015;SDS011;34830;44.064;12.566;2023-07-30T01:48:35;6.32;;;2.50;;
49015;SDS011;34830;44.064;12.566;2023-07-30T01:51:01;5.82;;;2.78;;
49015;SDS011;34830;44.064;12.566;2023-07-30T01:53:27;5.20;;;2.38;;
49015;SDS011;34830;44.064;12.566;2023-07-30T01:55:53;4.90;;;2.67;;
49015;SDS011;34830;44.064;12.566;2023-07-30T01:58:19;15.85;;;3.35;;
49015;SDS011;34830;44.064;12.566;2023-07-30T02:00:45;5.25;;;2.47;;
49015;SDS011;34830;44.064;12.566;2023-07-30T02:03:11;5.88;;;2.90;;
49015;SDS011;34830;44.064;12.566;2023-07-30T02:05:37;7.78;;;3.38;;
49015;SDS011;34830;44.064;12.566;2023-07-30T02:08:03;4.78;;;2.33;;
49015;SDS011;34830;44.064;12.566;2023-07-30T02:10:30;4.97;;;2.20;;
49015;SDS011;34830;44.064;12.566;2023-07-30T02:12:56;5.00;;;2.75;;
49015;SDS011;34830;44.064;12.566;2023-07-30T02:15:22;5.20;;;2.50;;
49015;SDS011;34830;44.064;12.566;2023-07-30T02:17:48;5.55;;;2.38;;
49015;SDS011;34830;44.064;12.566;2023-07-30T02:20:14;6.88;;;2.83;;
49015;SDS011;34830;44.064;12.566;2023-07-30T02:22:40;4.97;;;2.78;;
49015;SDS011;34830;44.064;12.566;2023-07-30T02:25:06;6.25;;;2.60;;
49015;SDS011;34830;44.064;12.566;2023-07-30T02:27:33;6.32;;;2.75;;
49015;SDS011;34830;44.064;12.566;2023-07-30T02:29:59;5.22;;;2.40;;
49015;SDS011;34830;44.064;12.566;2023-07-30T02:32:25;6.70;;;2.70;;
49015;SDS011;34830;44.064;12.566;2023-07-30T02:34:51;7.65;;;2.70;;
49015;SDS011;34830;44.064;12.566;2023-07-30T02:37:17;8.90;;;3.10;;
49015;SDS011;34830;44.064;12.566;2023-07-30T02:39:43;5.43;;;2.90;;
49015;SDS011;34830;44.064;12.566;2023-07-30T02:42:09;9.98;;;3.70;;
49015;SDS011;34830;44.064;12.566;2023-07-30T02:44:35;6.78;;;3.40;;
49015;SDS011;34830;44.064;12.566;2023-07-30T02:47:01;8.13;;;3.15;;
49015;SDS011;34830;44.064;12.566;2023-07-30T02:49:27;6.13;;;3.05;;
49015;SDS011;34830;44.064;12.566;2023-07-30T02:51:53;4.18;;;2.17;;
49015;SDS011;34830;44.064;12.566;2023-07-30T02:54:19;5.05;;;2.47;;
49015;SDS011;34830;44.064;12.566;2023-07-30T02:56:48;5.03;;;2.30;;
49015;SDS011;34830;44.064;12.566;2023-07-30T02:59:14;5.20;;;2.08;;
49015;SDS011;34830;44.064;12.566;2023-07-30T03:01:40;8.98;;;3.03;;
49015;SDS011;34830;44.064;12.566;2023-07-30T03:04:07;6.82;;;2.53;;
49015;SDS011;34830;44.064;12.566;2023-07-30T03:06:33;8.73;;;3.08;;
49015;SDS011;34830;44.064;12.566;2023-07-30T03:08:59;5.75;;;2.80;;
49015;SDS011;34830;44.064;12.566;2023-07-30T03:11:25;4.20;;;2.33;;
49015;SDS011;34830;44.064;12.566;2023-07-30T03:13:51;4.03;;;2.28;;
49015;SDS011;34830;44.064;12.566;2023-07-30T03:16:17;6.60;;;3.05;;
49015;SDS011;34830;44.064;12.566;2023-07-30T03:18:43;4.60;;;2.13;;
49015;SDS011;34830;44.064;12.566;2023-07-30T03:21:09;5.75;;;2.70;;
49015;SDS011;34830;44.064;12.566;2023-07-30T03:23:35;7.53;;;2.38;;
49015;SDS011;34830;44.064;12.566;2023-07-30T03:26:01;5.45;;;2.25;;
49015;SDS011;34830;44.064;12.566;2023-07-30T03:28:28;7.15;;;2.35;;
49015;SDS011;34830;44.064;12.566;2023-07-30T03:30:54;5.45;;;2.83;;
49015;SDS011;34830;44.064;12.566;2023-07-30T03:33:20;6.07;;;2.35;;
49015;SDS011;34830;44.064;12.566;2023-07-30T03:35:47;9.30;;;2.67;;
49015;SDS011;34830;44.064;12.566;2023-07-30T03:38:13;4.55;;;2.08;;
49015;SDS011;34830;44.064;12.566;2023-07-30T03:40:40;5.03;;;2.30;;
49015;SDS011;34830;44.064;12.566;2023-07-30T03:43:06;6.38;;;2.58;;
49015;SDS011;34830;44.064;12.566;2023-07-30T03:45:32;4.03;;;2.15;;
49015;SDS011;34830;44.064;12.566;2023-07-30T03:47:59;6.60;;;2.72;;
49015;SDS011;34830;44.064;12.566;2023-07-30T03:50:25;5.88;;;2.22;;
49015;SDS011;34830;44.064;12.566;2023-07-30T03:52:51;8.40;;;2.78;;
49015;SDS011;34830;44.064;12.566;2023-07-30T03:55:17;4.88;;;1.85;;
49015;SDS011;34830;44.064;12.566;2023-07-30T03:57:43;4.63;;;2.22;;
49015;SDS011;34830;44.064;12.566;2023-07-30T04:00:09;4.90;;;1.92;;
49015;SDS011;34830;44.064;12.566;2023-07-30T04:02:41;3.78;;;1.80;;
49015;SDS011;34830;44.064;12.566;2023-07-30T04:05:07;5.82;;;1.90;;
49015;SDS011;34830;44.064;12.566;2023-07-30T04:07:34;4.45;;;1.85;;
49015;SDS011;34830;44.064;12.566;2023-07-30T04:10:00;4.82;;;1.85;;
49015;SDS011;34830;44.064;12.566;2023-07-30T04:12:26;6.95;;;2.08;;
49015;SDS011;34830;44.064;12.566;2023-07-30T04:14:52;5.68;;;1.50;;
49015;SDS011;34830;44.064;12.566;2023-07-30T04:17:18;6.32;;;1.88;;
49015;SDS011;34830;44.064;12.566;2023-07-30T04:19:48;3.53;;;1.75;;
49015;SDS011;34830;44.064;12.566;2023-07-30T04:22:14;4.65;;;1.75;;
49015;SDS011;34830;44.064;12.566;2023-07-30T04:24:40;5.22;;;1.90;;
49015;SDS011;34830;44.064;12.566;2023-07-30T04:27:07;5.50;;;1.73;;
49015;SDS011;34830;44.064;12.566;2023-07-30T04:29:33;2.70;;;1.50;;
49015;SDS011;34830;44.064;12.566;2023-07-30T04:31:59;3.97;;;1.85;;
49015;SDS011;34830;44.064;12.566;2023-07-30T04:34:25;5.38;;;2.13;;
49015;SDS011;34830;44.064;12.566;2023-07-30T04:36:51;4.38;;;2.10;;
49015;SDS011;34830;44.064;12.566;2023-07-30T04:39:18;4.88;;;1.83;;
49015;SDS011;34830;44.064;12.566;2023-07-30T04:41:45;7.22;;;2.10;;
49015;SDS011;34830;44.064;12.566;2023-07-30T04:44:11;6.72;;;1.83;;
49015;SDS011;34830;44.064;12.566;2023-07-30T04:46:37;4.25;;;1.80;;
49015;SDS011;34830;44.064;12.566;2023-07-30T04:49:04;6.25;;;2.60;;
49015;SDS011;34830;44.064;12.566;2023-07-30T04:51:31;4.55;;;1.73;;
49015;SDS011;34830;44.064;12.566;2023-07-30T04:53:57;4.60;;;1.75;;
49015;SDS011;34830;44.064;12.566;2023-07-30T04:56:23;3.38;;;1.52;;
49015;SDS011;34830;44.064;12.566;2023-07-30T04:58:52;4.32;;;2.13;;
49015;SDS011;34830;44.064;12.566;2023-07-30T05:01:18;7.05;;;2.17;;
49015;SDS011;34830;44.064;12.566;2023-07-30T05:03:44;4.22;;;2.13;;
49015;SDS011;34830;44.064;12.566;2023-07-30T05:06:11;4.22;;;1.90;;
49015;SDS011;34830;44.064;12.566;2023-07-30T05:08:37;4.15;;;1.70;;
49015;SDS011;34830;44.064;12.566;2023-07-30T05:11:03;5.60;;;1.80;;
49015;SDS011;34830;44.064;12.566;2023-07-30T05:13:29;6.20;;;1.90;;
49015;SDS011;34830;44.064;12.566;2023-07-30T05:15:55;3.88;;;1.90;;
49015;SDS011;34830;44.064;12.566;2023-07-30T05:18:21;6.70;;;1.95;;
49015;SDS011;34830;44.064;12.566;2023-07-30T05:20:48;4.97;;;1.50;;
49015;SDS011;34830;44.064;12.566;2023-07-30T05:23:15;12.70;;;2.30;;
49015;SDS011;34830;44.064;12.566;2023-07-30T05:25:41;4.10;;;1.70;;
49015;SDS011;34830;44.064;12.566;2023-07-30T05:28:07;6.70;;;2.17;;
49015;SDS011;34830;44.064;12.566;2023-07-30T05:30:33;5.40;;;1.90;;
49015;SDS011;34830;44.064;12.566;2023-07-30T05:32:59;5.72;;;1.92;;
49015;SDS011;34830;44.064;12.566;2023-07-30T05:35:25;5.05;;;2.10;;
49015;SDS011;34830;44.064;12.566;2023-07-30T05:37:51;6.13;;;1.50;;
49015;SDS011;34830;44.064;12.566;2023-07-30T05:40:17;5.32;;;1.90;;
49015;SDS011;34830;44.064;12.566;2023-07-30T05:42:43;4.60;;;1.90;;
49015;SDS011;34830;44.064;12.566;2023-07-30T05:45:10;5.00;;;1.85;;
49015;SDS011;34830;44.064;12.566;2023-07-30T05:47:36;3.83;;;1.73;;
49015;SDS011;34830;44.064;12.566;2023-07-30T05:50:02;4.03;;;2.17;;
49015;SDS011;34830;44.064;12.566;2023-07-30T05:52:29;6.80;;;2.33;;
49015;SDS011;34830;44.064;12.566;2023-07-30T05:54:55;7.03;;;2.35;;
49015;SDS011;34830;44.064;12.566;2023-07-30T05:57:21;4.65;;;1.88;;
49015;SDS011;34830;44.064;12.566;2023-07-30T05:59:47;3.50;;;1.90;;
49015;SDS011;34830;44.064;12.566;2023-07-30T06:02:13;4.75;;;2.10;;
49015;SDS011;34830;44.064;12.566;2023-07-30T06:04:40;4.18;;;1.90;;
49015;SDS011;34830;44.064;12.566;2023-07-30T06:07:06;9.98;;;2.45;;
49015;SDS011;34830;44.064;12.566;2023-07-30T06:09:33;5.03;;;1.85;;
49015;SDS011;34830;44.064;12.566;2023-07-30T06:11:59;2.97;;;1.50;;
49015;SDS011;34830;44.064;12.566;2023-07-30T06:14:25;3.67;;;1.45;;
49015;SDS011;34830;44.064;12.566;2023-07-30T06:16:52;4.13;;;1.80;;
49015;SDS011;34830;44.064;12.566;2023-07-30T06:19:19;5.35;;;1.30;;
49015;SDS011;34830;44.064;12.566;2023-07-30T06:21:45;4.03;;;1.58;;
49015;SDS011;34830;44.064;12.566;2023-07-30T06:24:11;8.65;;;2.13;;
49015;SDS011;34830;44.064;12.566;2023-07-30T06:26:37;2.97;;;1.83;;
49015;SDS011;34830;44.064;12.566;2023-07-30T06:29:03;3.85;;;1.60;;
49015;SDS011;34830;44.064;12.566;2023-07-30T06:31:29;4.05;;;1.23;;
49015;SDS011;34830;44.064;12.566;2023-07-30T06:33:56;4.82;;;1.50;;
49015;SDS011;34830;44.064;12.566;2023-07-30T06:36:22;3.33;;;1.23;;
49015;SDS011;34830;44.064;12.566;2023-07-30T06:38:48;3.25;;;1.48;;
49015;SDS011;34830;44.064;12.566;2023-07-30T06:41:14;6.28;;;1.90;;
49015;SDS011;34830;44.064;12.566;2023-07-30T06:43:40;4.38;;;1.70;;
49015;SDS011;34830;44.064;12.566;2023-07-30T06:46:09;4.50;;;1.85;;
49015;SDS011;34830;44.064;12.566;2023-07-30T06:48:35;7.22;;;1.80;;
49015;SDS011;34830;44.064;12.566;2023-07-30T06:51:01;2.78;;;1.50;;
49015;SDS011;34830;44.064;12.566;2023-07-30T06:53:31;3.78;;;1.50;;
49015;SDS011;34830;44.064;12.566;2023-07-30T06:55:57;4.97;;;1.65;;
49015;SDS011;34830;44.064;12.566;2023-07-30T06:58:23;2.67;;;1.40;;
49015;SDS011;34830;44.064;12.566;2023-07-30T07:00:49;12.77;;;3.33;;
49015;SDS011;34830;44.064;12.566;2023-07-30T07:03:15;4.05;;;1.60;;
49015;SDS011;34830;44.064;12.566;2023-07-30T07:05:41;5.40;;;1.70;;
49015;SDS011;34830;44.064;12.566;2023-07-30T07:08:07;4.63;;;1.65;;
49015;SDS011;34830;44.064;12.566;2023-07-30T07:10:33;3.78;;;1.52;;
49015;SDS011;34830;44.064;12.566;2023-07-30T07:12:59;6.40;;;2.00;;
49015;SDS011;34830;44.064;12.566;2023-07-30T07:15:25;4.32;;;2.38;;
49015;SDS011;34830;44.064;12.566;2023-07-30T07:17:51;4.82;;;1.95;;
49015;SDS011;34830;44.064;12.566;2023-07-30T07:20:17;4.82;;;1.98;;
49015;SDS011;34830;44.064;12.566;2023-07-30T07:22:44;7.45;;;2.17;;
49015;SDS011;34830;44.064;12.566;2023-07-30T07:25:10;4.75;;;2.17;;
49015;SDS011;34830;44.064;12.566;2023-07-30T07:27:36;8.70;;;2.53;;
49015;SDS011;34830;44.064;12.566;2023-07-30T07:30:02;12.75;;;2.78;;
49015;SDS011;34830;44.064;12.566;2023-07-30T07:32:28;8.32;;;2.00;;
49015;SDS011;34830;44.064;12.566;2023-07-30T07:34:54;7.03;;;2.10;;
49015;SDS011;34830;44.064;12.566;2023-07-30T07:37:20;7.28;;;2.15;;
49015;SDS011;34830;44.064;12.566;2023-07-30T07:39:47;3.47;;;1.73;;
49015;SDS011;34830;44.064;12.566;2023-07-30T07:42:13;5.10;;;1.95;;
49015;SDS011;34830;44.064;12.566;2023-07-30T07:44:39;6.57;;;1.95;;
49015;SDS011;34830;44.064;12.566;2023-07-30T07:47:05;8.63;;;3.35;;
49015;SDS011;34830;44.064;12.566;2023-07-30T07:49:31;8.65;;;2.30;;
49015;SDS011;34830;44.064;12.566;2023-07-30T07:51:57;5.82;;;2.35;;
49015;SDS011;34830;44.064;12.566;2023-07-30T07:54:23;8.70;;;2.17;;
49015;SDS011;34830;44.064;12.566;2023-07-30T07:56:49;6.40;;;2.05;;
49015;SDS011;34830;44.064;12.566;2023-07-30T07:59:15;8.57;;;1.83;;
49015;SDS011;34830;44.064;12.566;2023-07-30T08:01:41;5.80;;;2.67;;
49015;SDS011;34830;44.064;12.566;2023-07-30T08:04:07;5.13;;;1.70;;
49015;SDS011;34830;44.064;12.566;2023-07-30T08:06:33;7.40;;;2.47;;
49015;SDS011;34830;44.064;12.566;2023-07-30T08:08:59;5.72;;;1.73;;
49015;SDS011;34830;44.064;12.566;2023-07-30T08:11:25;5.13;;;2.08;;
49015;SDS011;34830;44.064;12.566;2023-07-30T08:13:51;4.15;;;1.73;;
49015;SDS011;34830;44.064;12.566;2023-07-30T08:16:17;6.38;;;1.92;;
49015;SDS011;34830;44.064;12.566;2023-07-30T08:18:43;10.77;;;2.58;;
49015;SDS011;34830;44.064;12.566;2023-07-30T08:21:09;6.03;;;2.10;;
49015;SDS011;34830;44.064;12.566;2023-07-30T08:23:35;7.70;;;1.88;;
49015;SDS011;34830;44.064;12.566;2023-07-30T08:26:02;3.75;;;1.45;;
49015;SDS011;34830;44.064;12.566;2023-07-30T08:28:28;7.88;;;2.40;;
49015;SDS011;34830;44.064;12.566;2023-07-30T08:30:59;4.32;;;1.95;;
49015;SDS011;34830;44.064;12.566;2023-07-30T08:33:27;9.27;;;1.88;;
49015;SDS011;34830;44.064;12.566;2023-07-30T08:35:56;6.38;;;1.92;;
49015;SDS011;34830;44.064;12.566;2023-07-30T08:38:23;8.57;;;2.05;;
49015;SDS011;34830;44.064;12.566;2023-07-30T08:40:49;5.53;;;1.92;;
49015;SDS011;34830;44.064;12.566;2023-07-30T08:43:16;7.28;;;1.80;;
49015;SDS011;34830;44.064;12.566;2023-07-30T08:45:43;7.65;;;3.10;;
49015;SDS011;34830;44.064;12.566;2023-07-30T08:48:09;8.13;;;2.35;;
49015;SDS011;34830;44.064;12.566;2023-07-30T08:50:35;8.10;;;1.98;;
49015;SDS011;34830;44.064;12.566;2023-07-30T08:53:02;7.43;;;2.08;;
49015;SDS011;34830;44.064;12.566;2023-07-30T08:55:28;8.90;;;2.90;;
49015;SDS011;34830;44.064;12.566;2023-07-30T08:57:56;9.05;;;2.20;;
49015;SDS011;34830;44.064;12.566;2023-07-30T09:00:24;6.45;;;2.08;;
49015;SDS011;34830;44.064;12.566;2023-07-30T09:02:52;14.85;;;2.30;;
49015;SDS011;34830;44.064;12.566;2023-07-30T09:05:19;6.53;;;2.33;;
49015;SDS011;34830;44.064;12.566;2023-07-30T09:07:46;7.20;;;2.38;;
49015;SDS011;34830;44.064;12.566;2023-07-30T09:10:12;9.52;;;2.60;;
49015;SDS011;34830;44.064;12.566;2023-07-30T09:12:39;7.28;;;2.40;;
49015;SDS011;34830;44.064;12.566;2023-07-30T09:15:06;9.13;;;3.10;;
49015;SDS011;34830;44.064;12.566;2023-07-30T09:17:33;7.85;;;2.38;;
49015;SDS011;34830;44.064;12.566;2023-07-30T09:20:00;10.43;;;2.72;;
49015;SDS011;34830;44.064;12.566;2023-07-30T09:22:27;10.10;;;2.80;;
49015;SDS011;34830;44.064;12.566;2023-07-30T09:24:55;7.95;;;2.20;;
49015;SDS011;34830;44.064;12.566;2023-07-30T09:27:21;10.73;;;3.05;;
49015;SDS011;34830;44.064;12.566;2023-07-30T09:29:52;10.77;;;3.30;;
49015;SDS011;34830;44.064;12.566;2023-07-30T09:32:19;7.72;;;2.50;;
49015;SDS011;34830;44.064;12.566;2023-07-30T09:34:46;9.32;;;2.65;;
49015;SDS011;34830;44.064;12.566;2023-07-30T09:37:12;11.75;;;3.40;;
49015;SDS011;34830;44.064;12.566;2023-07-30T09:39:39;16.08;;;3.17;;
49015;SDS011;34830;44.064;12.566;2023-07-30T09:42:05;8.57;;;2.40;;
49015;SDS011;34830;44.064;12.566;2023-07-30T09:44:32;15.95;;;4.38;;
49015;SDS011;34830;44.064;12.566;2023-07-30T09:47:00;8.95;;;2.80;;
49015;SDS011;34830;44.064;12.566;2023-07-30T09:51:57;11.60;;;2.80;;
49015;SDS011;34830;44.064;12.566;2023-07-30T09:54:23;9.95;;;2.60;;
49015;SDS011;34830;44.064;12.566;2023-07-30T09:56:49;10.00;;;2.90;;
49015;SDS011;34830;44.064;12.566;2023-07-30T09:59:17;13.93;;;3.08;;
49015;SDS011;34830;44.064;12.566;2023-07-30T10:01:44;10.35;;;2.58;;
49015;SDS011;34830;44.064;12.566;2023-07-30T10:04:12;13.13;;;3.13;;
49015;SDS011;34830;44.064;12.566;2023-07-30T10:06:42;8.95;;;2.60;;
49015;SDS011;34830;44.064;12.566;2023-07-30T10:09:15;5.68;;;1.90;;
49015;SDS011;34830;44.064;12.566;2023-07-30T10:11:43;12.38;;;2.70;;
49015;SDS011;34830;44.064;12.566;2023-07-30T10:14:11;6.18;;;1.92;;
49015;SDS011;34830;44.064;12.566;2023-07-30T10:16:37;8.65;;;2.40;;
49015;SDS011;34830;44.064;12.566;2023-07-30T10:19:03;10.73;;;2.42;;
49015;SDS011;34830;44.064;12.566;2023-07-30T10:21:32;12.40;;;2.78;;
49015;SDS011;34830;44.064;12.566;2023-07-30T10:23:59;10.35;;;3.45;;
49015;SDS011;34830;44.064;12.566;2023-07-30T10:26:33;11.20;;;2.67;;
49015;SDS011;34830;44.064;12.566;2023-07-30T10:29:14;6.40;;;2.78;;
49015;SDS011;34830;44.064;12.566;2023-07-30T10:31:42;7.10;;;2.50;;
49015;SDS011;34830;44.064;12.566;2023-07-30T10:34:10;8.00;;;2.80;;
49015;SDS011;34830;44.064;12.566;2023-07-30T10:36:40;8.73;;;2.50;;
49015;SDS011;34830;44.064;12.566;2023-07-30T10:39:11;7.57;;;2.45;;
49015;SDS011;34830;44.064;12.566;2023-07-30T10:41:42;8.88;;;2.65;;
49015;SDS011;34830;44.064;12.566;2023-07-30T10:44:17;8.85;;;3.00;;
49015;SDS011;34830;44.064;12.566;2023-07-30T10:46:54;7.23;;;3.20;;
49015;SDS011;34830;44.064;12.566;2023-07-30T10:49:21;8.68;;;2.33;;
49015;SDS011;34830;44.064;12.566;2023-07-30T10:51:47;5.85;;;2.00;;
49015;SDS011;34830;44.064;12.566;2023-07-30T10:54:13;10.23;;;2.80;;
49015;SDS011;34830;44.064;12.566;2023-07-30T10:56:42;8.90;;;2.25;;
49015;SDS011;34830;44.064;12.566;2023-07-30T10:59:08;5.65;;;2.97;;
49015;SDS011;34830;44.064;12.566;2023-07-30T11:01:38;9.63;;;2.28;;
49015;SDS011;34830;44.064;12.566;2023-07-30T11:04:06;7.03;;;2.97;;
49015;SDS011;34830;44.064;12.566;2023-07-30T11:06:35;12.63;;;3.15;;
49015;SDS011;34830;44.064;12.566;2023-07-30T11:09:01;9.65;;;3.55;;
49015;SDS011;34830;44.064;12.566;2023-07-30T11:11:27;9.45;;;2.15;;
49015;SDS011;34830;44.064;12.566;2023-07-30T11:13:54;10.02;;;2.40;;
49015;SDS011;34830;44.064;12.566;2023-07-30T11:16:20;7.80;;;2.55;;
49015;SDS011;34830;44.064;12.566;2023-07-30T11:18:46;8.07;;;2.10;;
49015;SDS011;34830;44.064;12.566;2023-07-30T11:21:13;6.93;;;2.33;;
49015;SDS011;34830;44.064;12.566;2023-07-30T11:23:42;10.38;;;2.42;;
49015;SDS011;34830;44.064;12.566;2023-07-30T11:26:12;6.28;;;2.00;;
49015;SDS011;34830;44.064;12.566;2023-07-30T11:31:07;8.15;;;1.90;;
49015;SDS011;34830;44.064;12.566;2023-07-30T11:33:40;8.65;;;2.10;;
49015;SDS011;34830;44.064;12.566;2023-07-30T11:36:08;6.57;;;2.58;;
49015;SDS011;34830;44.064;12.566;2023-07-30T11:38:37;5.38;;;2.22;;
49015;SDS011;34830;44.064;12.566;2023-07-30T11:41:04;11.30;;;3.05;;
49015;SDS011;34830;44.064;12.566;2023-07-30T11:43:38;7.65;;;2.20;;
49015;SDS011;34830;44.064;12.566;2023-07-30T11:46:15;10.88;;;1.90;;
49015;SDS011;34830;44.064;12.566;2023-07-30T11:48:43;6.95;;;2.05;;
49015;SDS011;34830;44.064;12.566;2023-07-30T11:51:21;9.98;;;2.47;;
49015;SDS011;34830;44.064;12.566;2023-07-30T11:53:55;7.38;;;2.20;;
49015;SDS011;34830;44.064;12.566;2023-07-30T11:56:26;7.03;;;2.00;;
49015;SDS011;34830;44.064;12.566;2023-07-30T11:58:58;6.80;;;2.20;;
49015;SDS011;34830;44.064;12.566;2023-07-30T12:01:30;10.07;;;2.45;;
49015;SDS011;34830;44.064;12.566;2023-07-30T12:04:05;9.25;;;2.45;;
49015;SDS011;34830;44.064;12.566;2023-07-30T12:06:42;9.45;;;2.72;;
49015;SDS011;34830;44.064;12.566;2023-07-30T12:09:10;11.13;;;2.85;;
49015;SDS011;34830;44.064;12.566;2023-07-30T12:11:46;6.25;;;2.45;;
49015;SDS011;34830;44.064;12.566;2023-07-30T12:14:22;4.72;;;1.73;;
49015;SDS011;34830;44.064;12.566;2023-07-30T12:16:51;7.88;;;2.65;;
49015;SDS011;34830;44.064;12.566;2023-07-30T12:19:17;6.28;;;2.20;;
49015;SDS011;34830;44.064;12.566;2023-07-30T12:21:43;6.38;;;2.08;;
49015;SDS011;34830;44.064;12.566;2023-07-30T12:24:09;10.07;;;2.60;;
49015;SDS011;34830;44.064;12.566;2023-07-30T12:26:35;6.40;;;1.92;;
49015;SDS011;34830;44.064;12.566;2023-07-30T12:29:01;5.38;;;1.98;;
49015;SDS011;34830;44.064;12.566;2023-07-30T12:31:27;8.23;;;2.88;;
49015;SDS011;34830;44.064;12.566;2023-07-30T12:33:54;5.10;;;1.92;;
49015;SDS011;34830;44.064;12.566;2023-07-30T12:36:21;6.38;;;2.35;;
49015;SDS011;34830;44.064;12.566;2023-07-30T12:38:47;8.57;;;2.28;;
49015;SDS011;34830;44.064;12.566;2023-07-30T12:41:13;4.85;;;1.85;;
49015;SDS011;34830;44.064;12.566;2023-07-30T12:43:39;7.75;;;2.17;;
49015;SDS011;34830;44.064;12.566;2023-07-30T12:46:05;9.82;;;2.17;;
49015;SDS011;34830;44.064;12.566;2023-07-30T12:48:32;7.68;;;2.30;;
49015;SDS011;34830;44.064;12.566;2023-07-30T12:50:58;7.13;;;1.92;;
49015;SDS011;34830;44.064;12.566;2023-07-30T12:53:24;5.55;;;1.90;;
49015;SDS011;34830;44.064;12.566;2023-07-30T12:55:51;11.63;;;2.30;;
49015;SDS011;34830;44.064;12.566;2023-07-30T12:58:17;10.68;;;2.40;;
49015;SDS011;34830;44.064;12.566;2023-07-30T13:00:43;4.05;;;1.90;;
49015;SDS011;34830;44.064;12.566;2023-07-30T13:03:09;8.65;;;2.10;;
49015;SDS011;34830;44.064;12.566;2023-07-30T13:05:35;6.72;;;1.75;;
49015;SDS011;34830;44.064;12.566;2023-07-30T13:08:01;4.13;;;1.40;;
49015;SDS011;34830;44.064;12.566;2023-07-30T13:10:27;4.90;;;1.42;;
49015;SDS011;34830;44.064;12.566;2023-07-30T13:12:53;4.20;;;1.55;;
49015;SDS011;34830;44.064;12.566;2023-07-30T13:15:19;9.50;;;1.67;;
49015;SDS011;34830;44.064;12.566;2023-07-30T13:17:45;6.13;;;1.80;;
49015;SDS011;34830;44.064;12.566;2023-07-30T13:20:11;3.55;;;1.30;;
49015;SDS011;34830;44.064;12.566;2023-07-30T13:22:38;4.45;;;1.10;;
49015;SDS011;34830;44.064;12.566;2023-07-30T13:25:04;6.90;;;1.60;;
49015;SDS011;34830;44.064;12.566;2023-07-30T13:27:30;2.92;;;1.30;;
49015;SDS011;34830;44.064;12.566;2023-07-30T13:29:56;4.38;;;1.20;;
49015;SDS011;34830;44.064;12.566;2023-07-30T13:32:22;3.85;;;1.10;;
49015;SDS011;34830;44.064;12.566;2023-07-30T13:34:48;3.03;;;1.10;;
49015;SDS011;34830;44.064;12.566;2023-07-30T13:37:14;5.38;;;1.15;;
49015;SDS011;34830;44.064;12.566;2023-07-30T13:39:40;3.80;;;1.27;;
49015;SDS011;34830;44.064;12.566;2023-07-30T13:42:06;2.70;;;1.20;;
49015;SDS011;34830;44.064;12.566;2023-07-30T13:44:32;3.97;;;1.10;;
49015;SDS011;34830;44.064;12.566;2023-07-30T13:46:58;6.03;;;1.30;;
49015;SDS011;34830;44.064;12.566;2023-07-30T13:49:24;4.80;;;1.17;;
49015;SDS011;34830;44.064;12.566;2023-07-30T13:51:50;4.57;;;1.35;;
49015;SDS011;34830;44.064;12.566;2023-07-30T13:54:17;4.15;;;1.38;;
49015;SDS011;34830;44.064;12.566;2023-07-30T13:56:43;5.07;;;1.48;;
49015;SDS011;34830;44.064;12.566;2023-07-30T13:59:09;3.45;;;1.27;;
49015;SDS011;34830;44.064;12.566;2023-07-30T14:01:35;5.32;;;1.27;;
49015;SDS011;34830;44.064;12.566;2023-07-30T14:04:01;5.05;;;1.85;;
49015;SDS011;34830;44.064;12.566;2023-07-30T14:06:27;5.45;;;1.35;;
49015;SDS011;34830;44.064;12.566;2023-07-30T14:08:54;6.90;;;1.60;;
49015;SDS011;34830;44.064;12.566;2023-07-30T14:11:20;4.55;;;1.30;;
49015;SDS011;34830;44.064;12.566;2023-07-30T14:13:46;4.55;;;1.63;;
49015;SDS011;34830;44.064;12.566;2023-07-30T14:16:12;6.85;;;1.60;;
49015;SDS011;34830;44.064;12.566;2023-07-30T14:18:39;6.63;;;1.85;;
49015;SDS011;34830;44.064;12.566;2023-07-30T14:21:05;5.45;;;1.50;;
49015;SDS011;34830;44.064;12.566;2023-07-30T14:23:31;5.15;;;2.00;;
49015;SDS011;34830;44.064;12.566;2023-07-30T14:25:57;2.72;;;1.25;;
49015;SDS011;34830;44.064;12.566;2023-07-30T14:28:24;5.00;;;1.50;;
49015;SDS011;34830;44.064;12.566;2023-07-30T14:30:50;6.40;;;1.60;;
49015;SDS011;34830;44.064;12.566;2023-07-30T14:33:16;3.85;;;1.63;;
49015;SDS011;34830;44.064;12.566;2023-07-30T14:35:42;5.85;;;1.30;;